Aeroporto :







RITROVATECI SU...

 
LOGIN :

Iscrizione | Disclaimer

   EN    FR    IT 

 









Sommario :    VFR   VFR Marginale   IFR   IFR Intensivo   IFR Molto Intensivo
Visibilità : 
Base nubi : 
>= 8 km
>= 3000ft
5 / 8 km
1000 / 3000 ft
1500m / 5 km
500 / 1000 ft
800 / 1500m
200 / 500 ft
< 800m
< 200 ft
Simboli :   Temporali  Nebbia  Neve Forte  Precipitazioni Forti  Vento > 20 kt






- Altitudine del aeroporto : 577 ft


KVSF - Hartness State (Springfield)

ULTIMO METAR :
  • 211523Z AUTO 00000KT 10SM OVC006 07/06 A3017 RMK AO2 T00720061

METARs OBSOLETI :
  • 211454Z AUTO 00000KT 10SM OVC004 07/06 A3016 RMK AO2 SLP218 T00670061 51006
  • 211354Z AUTO 00000KT 10SM OVC003 06/05 A3015 RMK AO2 SLP214 T00560050
  • 211254Z AUTO 00000KT 4SM BR OVC003 05/04 A3016 RMK AO2 SLP216 T00500044
  • 211243Z AUTO 06004KT 7SM OVC003 05/04 A3015 RMK AO2 T00500044

TAF N/A



MetMap, La meteo Aeronautica in un colpo d'occhio ! - Copyright ORBIFLY Dicembre 2007 - Disclaimer

ORBIFLY MET'MAP TEAM :

Programmazione e sviluppo : Alexandra Zaïnal
Concezione e sviluppo : Baudouin d'Aumeries
Co-Programmazione e sviluppo : Marc-Olivier Méhu
Supporto tecnico e logistico : Manuel Goepfert
Aiuto per la traduzione : Arnaldo La Scala

Contatto : metmap@orbifly.com




FONTI E CREDITI :

   NOAA